Time;durP1;ratioP1;P1;durP2;ratioP2;P2;SDS_P1;SDS_P2;PMS_P1;PMS_P2;Temp;Humidity;BMP_temperature;BMP_pressure;BME280_temperature;BME280_humidity;BME280_pressure;Samples;Min_cycle;Max_cycle;Signal;HPM_P1;HPM_P2
2022/03/17 00:01:34;;;;;;;32.40;21.58;;;10.60;99.90;;;;;;5125375;27;20031;-82
2022/03/17 00:04:01;;;;;;;27.75;20.40;;;10.80;99.90;;;;;;5128881;27;20035;-81
2022/03/17 00:06:28;;;;;;;29.98;22.17;;;10.60;99.90;;;;;;5143636;27;20479;-81
2022/03/17 00:08:54;;;;;;;31.02;21.83;;;10.50;99.90;;;;;;5115983;27;20142;-82
2022/03/17 00:11:20;;;;;;;32.00;21.98;;;10.50;99.90;;;;;;5132271;27;20403;-81
2022/03/17 00:13:46;;;;;;;32.10;21.83;;;10.50;99.90;;;;;;5114964;27;20148;-82
2022/03/17 00:16:12;;;;;;;31.70;22.45;;;10.50;99.90;;;;;;5114871;27;20141;-81
2022/03/17 00:18:38;;;;;;;29.10;21.17;;;10.50;99.90;;;;;;5097650;27;20069;-81
2022/03/17 00:21:04;;;;;;;33.35;22.23;;;10.50;99.90;;;;;;5131278;27;20055;-81
2022/03/17 00:23:30;;;;;;;33.80;22.38;;;10.40;99.90;;;;;;5131697;27;20047;-82
2022/03/17 00:25:56;;;;;;;32.92;23.23;;;10.50;99.90;;;;;;5131778;27;20046;-81
2022/03/17 00:28:21;;;;;;;32.70;22.33;;;10.40;99.90;;;;;;5114408;27;20047;-81
2022/03/17 00:30:47;;;;;;;32.83;22.17;;;10.50;99.90;;;;;;5131989;27;20095;-81
2022/03/17 00:33:13;;;;;;;32.67;22.67;;;10.60;99.90;;;;;;5132519;27;20055;-82
2022/03/17 00:35:38;;;;;;;35.65;23.70;;;10.40;99.90;;;;;;5131191;27;20039;-81
2022/03/17 00:38:09;;;;;;;32.88;22.80;;;10.40;99.90;;;;;;5113544;27;20112;-81
2022/03/17 00:40:36;;;;;;;33.58;22.20;;;10.50;99.90;;;;;;5130608;27;20483;-80
2022/03/17 00:43:06;;;;;;;33.22;22.95;;;10.50;99.90;;;;;;5096687;27;20047;-82
2022/03/17 00:45:32;;;;;;;33.17;22.70;;;10.50;99.90;;;;;;5132052;27;20039;-81
2022/03/17 00:47:58;;;;;;;31.60;22.83;;;10.50;99.90;;;;;;5113542;27;20080;-82
2022/03/17 00:50:25;;;;;;;31.83;22.23;;;10.50;99.90;;;;;;5130734;27;20051;-81
2022/03/17 00:52:50;;;;;;;33.08;22.77;;;10.50;99.90;;;;;;5096586;27;20047;-81
2022/03/17 00:55:16;;;;;;;31.88;22.35;;;10.50;99.90;;;;;;5097279;27;20054;-81
2022/03/17 00:57:42;;;;;;;31.92;23.35;;;10.50;99.90;;;;;;5113281;27;20242;-81
2022/03/17 01:00:09;;;;;;;32.33;23.38;;;10.50;99.90;;;;;;5131576;27;20057;-81
2022/03/17 01:02:35;;;;;;;33.88;22.70;;;10.50;99.90;;;;;;5130450;27;20557;-81
2022/03/17 01:05:01;;;;;;;34.38;22.73;;;10.50;99.90;;;;;;5096147;28;20042;-81
2022/03/17 01:07:26;;;;;;;37.13;24.17;;;10.60;99.90;;;;;;5130871;27;20060;-81
2022/03/17 01:09:52;;;;;;;37.45;23.83;;;10.60;99.90;;;;;;5114674;28;20188;-81
2022/03/17 01:20:11;;;;;;;31.75;22.55;;;10.60;99.90;;;;;;5342778;22;21211;31
2022/03/17 01:22:37;;;;;;;33.83;22.60;;;10.60;99.90;;;;;;5012404;28;20060;-81
2022/03/17 01:25:04;;;;;;;35.03;24.00;;;10.70;99.90;;;;;;5036215;28;20041;-81
2022/03/17 01:27:30;;;;;;;32.95;22.17;;;10.70;99.90;;;;;;5031397;28;20084;-80
2022/03/17 01:29:55;;;;;;;33.13;24.52;;;10.60;99.90;;;;;;5029271;28;20057;-82
2022/03/17 01:32:21;;;;;;;36.92;23.77;;;10.60;99.90;;;;;;5012232;28;20132;-81
2022/03/17 01:34:47;;;;;;;38.80;23.45;;;10.50;99.90;;;;;;5013027;28;20049;-81
2022/03/17 01:37:13;;;;;;;36.40;23.45;;;10.40;99.90;;;;;;5013069;28;20120;-81
2022/03/17 01:39:39;;;;;;;33.25;23.30;;;10.60;99.90;;;;;;5028879;28;20044;-81
2022/03/17 01:42:06;;;;;;;35.35;23.15;;;10.60;99.90;;;;;;4996553;28;20060;-81
2022/03/17 01:44:32;;;;;;;33.58;23.13;;;10.50;99.90;;;;;;5029860;28;20096;-81
2022/03/17 01:49:42;;;;;;;34.40;23.40;;;10.50;99.90;;;;;;5028968;28;20137;-81
2022/03/17 01:52:07;;;;;;;36.45;24.60;;;10.40;99.90;;;;;;5000404;28;20434;-82
2022/03/17 01:54:36;;;;;;;34.83;24.48;;;10.40;99.90;;;;;;5032267;28;20041;-81
2022/03/17 01:57:03;;;;;;;39.53;23.50;;;10.40;99.90;;;;;;5000132;28;20060;-81
2022/03/17 01:59:29;;;;;;;36.83;23.75;;;10.40;99.90;;;;;;5016204;28;20057;-81
2022/03/17 02:01:54;;;;;;;33.60;24.35;;;10.50;99.90;;;;;;5000616;28;20054;-82
2022/03/17 02:04:20;;;;;;;37.25;23.63;;;10.30;99.90;;;;;;5032759;28;20052;-80
2022/03/17 02:06:47;;;;;;;32.88;23.05;;;10.40;99.90;;;;;;5034956;28;20107;-81
2022/03/17 02:09:13;;;;;;;34.45;23.95;;;10.30;99.90;;;;;;5016619;28;20095;-81
2022/03/17 02:14:23;;;;;;;33.30;23.50;;;10.20;99.90;;;;;;5032509;28;20049;-80
2022/03/17 02:16:50;;;;;;;37.67;24.08;;;10.30;99.90;;;;;;4999799;28;20050;-81
2022/03/17 02:19:16;;;;;;;33.45;23.45;;;10.30;99.90;;;;;;5032776;28;20052;-81
2022/03/17 02:21:44;;;;;;;39.00;23.90;;;10.30;99.90;;;;;;5017843;28;20061;-82
2022/03/17 02:26:57;;;;;;;37.63;24.67;;;10.30;99.90;;;;;;5039160;28;20053;-81
2022/03/17 02:29:22;;;;;;;34.97;23.80;;;10.30;99.90;;;;;;5000446;28;20437;-81
2022/03/17 02:31:50;;;;;;;36.90;22.42;;;10.30;99.90;;;;;;5015312;28;20049;-81
2022/03/17 02:34:18;;;;;;;35.22;24.63;;;10.40;99.90;;;;;;5033768;28;20053;-81
2022/03/17 02:36:47;;;;;;;35.38;23.90;;;10.20;99.90;;;;;;5015573;28;20049;-81
2022/03/17 02:39:13;;;;;;;35.63;23.70;;;10.40;99.90;;;;;;4984077;28;20061;-81
2022/03/17 02:41:39;;;;;;;34.15;23.80;;;10.30;99.90;;;;;;5031702;28;20064;-81
2022/03/17 02:44:05;;;;;;;37.13;25.27;;;10.40;99.90;;;;;;5032274;28;20053;-81
2022/03/17 02:46:31;;;;;;;32.85;23.92;;;10.40;99.90;;;;;;5031318;28;20045;-81
2022/03/17 02:48:57;;;;;;;36.00;24.23;;;10.30;99.90;;;;;;5032342;28;20056;-80
2022/03/17 02:51:22;;;;;;;34.55;24.77;;;10.30;99.90;;;;;;5032061;28;20053;-81
2022/03/17 02:53:48;;;;;;;35.05;25.40;;;10.20;99.90;;;;;;5031565;28;20056;-81
2022/03/17 02:56:14;;;;;;;34.90;23.92;;;10.30;99.90;;;;;;5032366;28;20143;-81
2022/03/17 02:58:39;;;;;;;33.67;24.48;;;10.30;99.90;;;;;;4998753;28;20564;-82
2022/03/17 03:01:05;;;;;;;35.72;24.83;;;10.40;99.90;;;;;;5031842;28;20509;-82
2022/03/17 03:03:31;;;;;;;34.70;23.90;;;10.40;99.90;;;;;;5030506;28;20417;-81
2022/03/17 03:05:56;;;;;;;34.28;24.38;;;10.40;99.90;;;;;;5031083;28;20045;-82
2022/03/17 03:08:22;;;;;;;36.08;25.58;;;10.50;99.90;;;;;;5031823;28;20398;-82
2022/03/17 03:10:48;;;;;;;34.35;24.98;;;10.40;99.90;;;;;;5031210;28;20107;-81
2022/03/17 03:13:14;;;;;;;34.35;24.20;;;10.50;99.90;;;;;;5031753;28;20049;-82
2022/03/17 03:15:39;;;;;;;34.38;24.98;;;10.60;99.90;;;;;;5014659;28;20060;-81
2022/03/17 03:18:05;;;;;;;35.08;24.42;;;10.50;99.90;;;;;;5015357;28;20375;-81
2022/03/17 03:20:31;;;;;;;31.58;23.90;;;10.70;99.90;;;;;;5014498;28;20049;-81
2022/03/17 03:22:57;;;;;;;34.83;23.90;;;10.60;99.90;;;;;;5031767;28;20057;-82
2022/03/17 03:25:23;;;;;;;31.63;23.42;;;10.60;99.90;;;;;;5032112;28;20401;-81
2022/03/17 03:27:48;;;;;;;34.70;24.13;;;10.70;99.90;;;;;;5014511;28;20045;-81
2022/03/17 03:30:14;;;;;;;33.88;24.63;;;10.70;99.90;;;;;;5047964;28;20045;-82
2022/03/17 03:32:42;;;;;;;35.33;25.20;;;10.70;99.90;;;;;;5014373;28;20049;-81
2022/03/17 03:37:52;;;;;;;33.28;23.83;;;10.70;99.90;;;;;;5016850;28;20053;-81
2022/03/17 03:40:18;;;;;;;32.30;24.33;;;10.70;99.90;;;;;;5014766;28;20037;-81
2022/03/17 03:42:43;;;;;;;33.78;25.38;;;10.80;99.90;;;;;;5017259;28;20080;-81
2022/03/17 03:45:09;;;;;;;34.55;25.55;;;10.70;99.90;;;;;;5016376;28;20057;-81
2022/03/17 03:47:35;;;;;;;33.53;24.52;;;10.70;99.90;;;;;;5030374;28;20049;-81
2022/03/17 03:50:01;;;;;;;35.30;25.33;;;10.70;99.90;;;;;;5030919;28;20145;-81
2022/03/17 03:52:27;;;;;;;32.85;24.52;;;10.60;99.90;;;;;;5030967;28;20057;-81
2022/03/17 03:54:52;;;;;;;31.88;24.65;;;10.50;99.90;;;;;;5013712;28;20041;-81
2022/03/17 03:57:18;;;;;;;35.92;25.17;;;10.50;99.90;;;;;;5014411;28;20061;-81
2022/03/17 03:59:43;;;;;;;35.50;26.35;;;10.50;99.90;;;;;;5013558;28;20042;-81
2022/03/17 04:02:10;;;;;;;34.42;24.77;;;10.40;99.90;;;;;;5030409;28;20492;-81
2022/03/17 04:04:36;;;;;;;33.72;25.20;;;10.40;99.90;;;;;;5013658;28;20160;-81
2022/03/17 04:07:04;;;;;;;34.88;24.83;;;10.50;99.90;;;;;;5013965;28;20516;-81
2022/03/17 04:09:32;;;;;;;35.75;25.70;;;10.50;99.90;;;;;;5030678;28;20041;-82
2022/03/17 04:11:58;;;;;;;38.00;26.33;;;10.60;99.90;;;;;;5029256;28;20401;-82
2022/03/17 04:14:24;;;;;;;36.80;25.55;;;10.50;99.90;;;;;;5030168;28;20045;-81
2022/03/17 04:16:50;;;;;;;39.65;27.80;;;10.50;99.90;;;;;;5013521;28;20041;-82
2022/03/17 04:19:16;;;;;;;34.50;26.38;;;10.50;99.90;;;;;;5013941;28;20045;-81
2022/03/17 04:21:42;;;;;;;35.75;26.48;;;10.50;99.90;;;;;;5012896;28;20061;-82
2022/03/17 04:24:08;;;;;;;35.60;25.40;;;10.60;99.90;;;;;;5030192;28;20410;-80
2022/03/17 04:26:34;;;;;;;37.35;27.25;;;10.60;99.90;;;;;;5046350;28;20128;-81
2022/03/17 04:29:00;;;;;;;36.75;26.67;;;10.60;99.90;;;;;;5029430;28;20140;-81
2022/03/17 04:31:25;;;;;;;37.55;26.80;;;10.60;99.90;;;;;;5030294;28;20367;-81
2022/03/17 04:33:51;;;;;;;36.20;26.63;;;10.60;99.90;;;;;;5013418;28;20045;-81
2022/03/17 04:36:17;;;;;;;33.95;24.88;;;10.50;99.90;;;;;;5014094;28;20049;-82
2022/03/17 04:38:43;;;;;;;36.90;27.33;;;10.60;99.90;;;;;;5013330;28;20072;-81
2022/03/17 04:41:09;;;;;;;39.78;27.90;;;10.60;99.90;;;;;;5048061;28;20057;-81
2022/03/17 04:43:38;;;;;;;42.38;29.23;;;10.60;99.90;;;;;;5028581;28;20064;-81
2022/03/17 04:46:04;;;;;;;39.85;28.92;;;10.60;99.90;;;;;;5037954;28;20560;-82
2022/03/17 04:48:30;;;;;;;43.33;30.73;;;10.50;99.90;;;;;;5015050;28;20136;-81
2022/03/17 04:50:56;;;;;;;45.28;31.63;;;10.50;99.90;;;;;;5029572;28;20057;-81
2022/03/17 04:53:27;;;;;;;48.45;32.70;;;10.40;99.90;;;;;;5029934;28;20117;-81
2022/03/17 04:55:53;;;;;;;51.28;34.00;;;10.30;99.90;;;;;;5031371;28;20106;-81
2022/03/17 04:58:19;;;;;;;47.42;34.85;;;10.20;99.90;;;;;;5029369;28;20064;-81
2022/03/17 05:00:46;;;;;;;53.97;36.83;;;10.20;99.90;;;;;;5030265;28;20508;-81
2022/03/17 05:03:11;;;;;;;56.83;38.65;;;10.10;99.90;;;;;;5014598;28;20053;-81
2022/03/17 05:05:37;;;;;;;59.92;39.53;;;10.00;99.90;;;;;;5013933;28;20041;-81
2022/03/17 05:08:04;;;;;;;61.17;39.85;;;9.90;99.90;;;;;;5029618;28;20456;-81
2022/03/17 05:10:29;;;;;;;64.97;41.65;;;9.90;99.90;;;;;;5013595;28;20389;-80
2022/03/17 05:12:56;;;;;;;65.15;40.88;;;9.80;99.90;;;;;;5029604;28;20045;-80
2022/03/17 05:15:22;;;;;;;68.85;43.70;;;9.90;99.90;;;;;;5013224;28;20136;-81
2022/03/17 05:17:48;;;;;;;75.05;45.83;;;9.80;99.90;;;;;;5029486;28;20537;-81
2022/03/17 05:20:14;;;;;;;71.97;45.38;;;9.70;99.90;;;;;;5029869;28;20444;-80
2022/03/17 05:22:41;;;;;;;74.93;46.75;;;9.60;99.90;;;;;;5013014;28;20658;-81
2022/03/17 05:25:08;;;;;;;86.07;52.08;;;9.60;99.90;;;;;;5030157;28;20038;-80
2022/03/17 05:27:38;;;;;;;79.72;48.13;;;9.60;99.90;;;;;;5017688;28;20580;-80
2022/03/17 05:30:04;;;;;;;91.13;51.08;;;9.60;99.90;;;;;;5017087;28;20081;-80
2022/03/17 05:32:29;;;;;;;98.50;52.25;;;9.60;99.90;;;;;;5032430;28;20577;-80
2022/03/17 05:34:55;;;;;;;86.00;45.80;;;9.50;99.90;;;;;;5016916;28;20140;-79
2022/03/17 05:37:21;;;;;;;80.43;45.70;;;9.50;99.90;;;;;;5035042;28;20125;-80
2022/03/17 05:39:48;;;;;;;86.70;45.50;;;9.60;99.90;;;;;;5035965;28;20049;-80
2022/03/17 05:42:14;;;;;;;31.27;19.90;;;9.60;99.90;;;;;;5018922;28;20053;-80
2022/03/17 05:44:39;;;;;;;16.88;12.35;;;9.30;99.90;;;;;;5033481;28;20055;-81
2022/03/17 05:47:05;;;;;;;13.07;10.43;;;9.10;99.90;;;;;;5032825;28;20049;-81
2022/03/17 05:49:31;;;;;;;12.55;10.73;;;8.80;99.90;;;;;;5048283;28;20048;-81
2022/03/17 05:51:57;;;;;;;14.23;10.35;;;8.60;99.90;;;;;;5053611;28;20119;-81
2022/03/17 05:54:22;;;;;;;11.75;10.52;;;8.60;99.90;;;;;;5053456;28;20140;-81
2022/03/17 05:56:48;;;;;;;12.43;10.63;;;8.50;99.90;;;;;;5052000;28;20433;-82
2022/03/17 05:59:14;;;;;;;15.18;12.07;;;8.50;99.90;;;;;;5053459;28;20504;-83
2022/03/17 06:01:39;;;;;;;14.77;11.57;;;8.50;99.90;;;;;;5036698;28;20127;-82
2022/03/17 06:04:05;;;;;;;16.95;12.73;;;8.50;99.90;;;;;;5052452;28;20133;-83
2022/03/17 06:06:31;;;;;;;17.48;12.82;;;8.40;99.90;;;;;;5036374;28;20396;-83
2022/03/17 06:08:57;;;;;;;22.92;14.82;;;8.40;99.90;;;;;;5053559;28;20502;-82
2022/03/17 06:11:22;;;;;;;21.15;13.80;;;8.30;99.90;;;;;;5036606;28;20045;-81
2022/03/17 06:13:48;;;;;;;22.17;14.20;;;8.50;99.90;;;;;;5034916;28;20047;-82
2022/03/17 06:16:14;;;;;;;24.13;14.88;;;8.30;99.90;;;;;;5052956;28;20039;-82
2022/03/17 06:18:42;;;;;;;29.58;16.55;;;8.30;99.90;;;;;;5036482;28;20072;-82
2022/03/17 06:21:08;;;;;;;29.25;17.10;;;8.20;99.90;;;;;;5052981;28;20061;-82
2022/03/17 06:23:33;;;;;;;30.20;16.67;;;8.20;99.90;;;;;;5053150;28;20128;-82
2022/03/17 06:25:59;;;;;;;32.35;16.38;;;8.30;99.90;;;;;;5051832;28;20477;-83
2022/03/17 06:28:25;;;;;;;27.02;16.27;;;8.30;99.90;;;;;;5036331;28;20088;-82
2022/03/17 06:30:51;;;;;;;30.50;17.02;;;8.30;99.90;;;;;;5035417;28;20049;-82
2022/03/17 06:33:17;;;;;;;30.15;16.08;;;8.20;99.90;;;;;;5036529;28;20063;-82
2022/03/17 06:35:42;;;;;;;23.23;15.23;;;8.30;99.90;;;;;;5019498;28;20056;-82
2022/03/17 06:38:08;;;;;;;21.00;14.48;;;8.20;99.90;;;;;;5050771;28;20052;-82
2022/03/17 06:40:35;;;;;;;25.02;14.02;;;8.20;99.90;;;;;;5039196;28;20079;-81
2022/03/17 06:43:01;;;;;;;27.05;14.20;;;8.20;99.90;;;;;;5038470;28;20057;-82
2022/03/17 06:45:27;;;;;;;26.40;13.82;;;8.30;99.90;;;;;;5053198;28;20102;-83
2022/03/17 06:47:53;;;;;;;25.85;13.50;;;8.20;99.90;;;;;;5034870;28;20049;-82
2022/03/17 06:50:22;;;;;;;18.90;12.15;;;8.20;99.90;;;;;;5035980;28;20083;-82
2022/03/17 06:52:48;;;;;;;20.85;12.52;;;8.10;99.90;;;;;;5052058;28;20041;-82
2022/03/17 06:55:14;;;;;;;19.60;10.88;;;9.50;99.90;;;;;;5034745;28;20056;-82
2022/03/17 06:57:40;;;;;;;23.08;9.85;;;8.20;99.90;;;;;;5052070;28;20049;-82
2022/03/17 07:00:07;;;;;;;23.15;10.45;;;8.20;99.90;;;;;;5038410;28;20052;-82
2022/03/17 07:02:33;;;;;;;23.83;11.18;;;8.10;99.90;;;;;;5030104;28;20084;-82
2022/03/17 07:04:59;;;;;;;24.98;10.63;;;8.00;99.90;;;;;;5066882;28;20045;-81
2022/03/17 07:07:24;;;;;;;22.42;9.93;;;8.10;99.90;;;;;;5020088;28;20118;-82
2022/03/17 07:09:50;;;;;;;20.00;8.77;;;8.00;99.90;;;;;;5036482;28;20053;-82
2022/03/17 07:12:16;;;;;;;19.17;7.93;;;8.00;99.90;;;;;;5053029;28;20048;-83
2022/03/17 07:14:41;;;;;;;15.75;7.05;;;8.00;99.90;;;;;;5006816;28;20057;-82
2022/03/17 07:17:07;;;;;;;16.40;7.40;;;8.00;99.90;;;;;;5014942;28;20049;-82
2022/03/17 07:19:33;;;;;;;15.52;6.60;;;7.90;99.90;;;;;;5016221;28;20106;-82
2022/03/17 07:21:59;;;;;;;15.35;6.50;;;8.10;99.90;;;;;;5031097;28;20425;-82
2022/03/17 07:24:25;;;;;;;15.82;6.13;;;8.00;99.90;;;;;;4982712;28;20383;-82
2022/03/17 07:26:50;;;;;;;15.48;4.95;;;8.00;99.90;;;;;;5015033;28;20064;-82
2022/03/17 07:29:16;;;;;;;13.38;4.53;;;8.00;99.90;;;;;;5015160;28;20045;-82
2022/03/17 07:31:43;;;;;;;17.80;4.20;;;8.00;99.90;;;;;;5030721;28;20045;-82
2022/03/17 07:34:09;;;;;;;11.45;3.58;;;8.10;99.90;;;;;;5030933;28;20109;-82
2022/03/17 07:36:34;;;;;;;11.27;3.60;;;8.10;99.90;;;;;;5031875;28;20601;-82
2022/03/17 07:39:04;;;;;;;13.75;3.15;;;8.10;99.90;;;;;;5032253;28;20068;-82
2022/03/17 07:41:29;;;;;;;13.65;2.97;;;8.10;99.90;;;;;;5015709;28;20061;-82
2022/03/17 07:43:55;;;;;;;8.60;2.90;;;8.10;99.90;;;;;;5031776;28;20076;-82
2022/03/17 07:46:21;;;;;;;14.50;3.38;;;8.20;99.90;;;;;;5014233;28;20478;-83
2022/03/17 07:48:46;;;;;;;12.95;3.10;;;8.20;99.90;;;;;;5036692;28;20053;-81
2022/03/17 07:51:12;;;;;;;9.85;2.88;;;8.20;99.90;;;;;;5037851;28;20115;-82
2022/03/17 07:53:39;;;;;;;7.28;2.60;;;8.20;99.90;;;;;;5031980;28;20450;-82
2022/03/17 07:56:05;;;;;;;10.98;2.50;;;8.20;99.90;;;;;;5030673;28;20753;-82
2022/03/17 07:58:31;;;;;;;12.10;2.72;;;8.20;99.90;;;;;;4998859;28;20064;-82
2022/03/17 08:00:57;;;;;;;8.25;2.22;;;8.30;99.90;;;;;;5014912;28;20049;-82
2022/03/17 08:03:23;;;;;;;13.93;2.67;;;8.20;99.90;;;;;;4998255;28;20057;-82
2022/03/17 08:05:49;;;;;;;13.77;2.47;;;8.10;99.90;;;;;;4998403;28;20613;-82
2022/03/17 08:08:15;;;;;;;10.88;2.53;;;8.20;99.90;;;;;;5014207;28;20091;-82
2022/03/17 08:10:40;;;;;;;14.02;2.15;;;8.00;99.90;;;;;;5014286;28;20045;-82
2022/03/17 08:13:08;;;;;;;13.40;2.85;;;7.90;99.90;;;;;;5030508;28;20057;-82
2022/03/17 08:15:34;;;;;;;12.55;2.70;;;7.90;99.90;;;;;;5031206;28;20393;-83
2022/03/17 08:17:59;;;;;;;16.52;3.00;;;7.80;99.90;;;;;;5030980;28;20375;-82
2022/03/17 08:20:25;;;;;;;16.20;2.25;;;7.80;99.90;;;;;;5031540;28;20057;-83
2022/03/17 08:22:51;;;;;;;13.82;2.25;;;7.80;99.90;;;;;;5013929;28;20064;-83
2022/03/17 08:25:17;;;;;;;11.65;2.38;;;7.90;99.90;;;;;;5013758;28;20050;-82
2022/03/17 08:27:43;;;;;;;12.10;2.10;;;7.90;99.90;;;;;;5030883;28;20042;-82
2022/03/17 08:30:10;;;;;;;14.32;2.35;;;7.90;99.90;;;;;;5013689;28;20045;-82
2022/03/17 08:32:35;;;;;;;12.95;2.00;;;8.00;99.90;;;;;;5013669;28;20053;-82
2022/03/17 08:35:01;;;;;;;14.40;2.08;;;8.00;99.90;;;;;;5014056;28;20060;-82
2022/03/17 08:37:27;;;;;;;12.20;2.42;;;8.00;99.90;;;;;;4997305;28;20068;-82
2022/03/17 08:39:52;;;;;;;13.43;2.85;;;8.00;99.90;;;;;;5030492;28;20044;-82
2022/03/17 08:42:18;;;;;;;12.98;2.47;;;8.00;99.90;;;;;;4997438;28;20046;-82
2022/03/17 08:44:44;;;;;;;15.45;2.90;;;8.10;99.90;;;;;;5014095;28;20106;-82
2022/03/17 08:49:53;;;;;;;16.58;2.47;;;8.10;99.90;;;;;;5030024;28;20057;-82
2022/03/17 08:52:19;;;;;;;18.02;3.20;;;8.10;99.90;;;;;;5012935;28;20045;-82
2022/03/17 08:54:45;;;;;;;14.63;2.97;;;8.10;99.90;;;;;;5014469;28;20057;-83
2022/03/17 08:57:11;;;;;;;10.90;2.35;;;8.30;99.90;;;;;;5030240;28;20446;-82
2022/03/17 08:59:36;;;;;;;13.40;2.67;;;8.20;99.90;;;;;;4997465;28;20057;-82
2022/03/17 09:02:07;;;;;;;15.98;3.25;;;8.20;99.90;;;;;;5023793;28;20053;-81
2022/03/17 09:04:33;;;;;;;19.63;2.33;;;8.20;99.90;;;;;;5009543;28;20049;-83
2022/03/17 09:07:00;;;;;;;13.57;2.22;;;8.10;99.90;;;;;;5030182;28;20045;-83
2022/03/17 09:09:33;;;;;;;13.75;2.30;;;8.10;99.90;;;;;;4999223;28;20445;-82
2022/03/17 09:11:59;;;;;;;11.80;2.20;;;8.10;99.90;;;;;;5029598;28;20045;-82
2022/03/17 09:14:25;;;;;;;11.75;2.13;;;8.10;99.90;;;;;;5029236;28;20045;-82
2022/03/17 09:16:51;;;;;;;19.02;3.30;;;8.20;99.90;;;;;;5029781;28;20052;-82
2022/03/17 09:19:19;;;;;;;12.35;2.35;;;8.10;99.90;;;;;;5030870;28;20053;-83
2022/03/17 09:21:45;;;;;;;13.68;2.72;;;8.10;99.90;;;;;;5034257;28;20096;-83
2022/03/17 09:24:12;;;;;;;12.90;2.20;;;8.00;99.90;;;;;;5054401;28;20079;-81
2022/03/17 09:26:38;;;;;;;17.30;3.13;;;8.00;99.90;;;;;;5051705;28;20065;-81
2022/03/17 09:29:04;;;;;;;18.52;3.08;;;8.30;99.90;;;;;;5050406;28;20145;-82
2022/03/17 09:31:29;;;;;;;13.60;2.40;;;8.30;99.90;;;;;;5030082;28;20045;-82
2022/03/17 09:33:56;;;;;;;16.73;2.90;;;8.30;99.90;;;;;;5030280;28;20075;-83
2022/03/17 09:36:21;;;;;;;9.68;2.15;;;8.50;99.90;;;;;;5030388;28;20053;-82
2022/03/17 09:39:45;;;;;;;13.05;2.38;;;8.60;99.90;;;;;;5049199;28;20677;-83
2022/03/17 09:41:36;;;;;;;14.73;2.65;;;8.40;99.90;;;;;;5049432;28;20053;-83
2022/03/17 09:44:02;;;;;;;13.65;2.47;;;8.40;99.90;;;;;;5030230;28;20421;-83
2022/03/17 09:46:28;;;;;;;15.18;2.55;;;8.50;99.90;;;;;;5032701;28;20038;-84
2022/03/17 09:48:55;;;;;;;11.95;2.67;;;8.40;99.90;;;;;;5033061;28;20052;-84
2022/03/17 09:51:25;;;;;;;12.68;2.55;;;8.50;99.90;;;;;;5033395;28;20057;-83
2022/03/17 09:53:53;;;;;;;16.00;2.72;;;8.50;99.90;;;;;;5055905;28;20106;-83
2022/03/17 09:56:23;;;;;;;15.85;3.70;;;8.40;99.90;;;;;;5016043;28;20060;-84
2022/03/17 09:58:53;;;;;;;19.85;2.78;;;8.50;99.90;;;;;;5031718;28;20045;-84
2022/03/17 10:01:19;;;;;;;14.38;2.70;;;8.50;99.90;;;;;;5046467;28;20057;-84
2022/03/17 10:03:45;;;;;;;14.10;2.40;;;8.50;99.90;;;;;;5032940;28;20041;-84
2022/03/17 10:06:11;;;;;;;15.93;2.92;;;8.40;99.90;;;;;;5049268;28;20149;-84
2022/03/17 10:08:38;;;;;;;19.60;2.55;;;8.50;99.90;;;;;;5048568;28;20517;-84
2022/03/17 10:11:03;;;;;;;17.83;2.75;;;8.60;99.90;;;;;;5049730;28;20134;-86
2022/03/17 10:13:29;;;;;;;14.32;2.30;;;8.60;99.90;;;;;;5052166;28;20124;-84
2022/03/17 10:16:08;;;;;;;14.10;2.53;;;8.70;99.90;;;;;;5052618;28;20049;-84
2022/03/17 10:18:37;;;;;;;15.73;2.80;;;8.90;99.90;;;;;;5035562;28;20473;-84
2022/03/17 10:21:12;;;;;;;13.65;2.35;;;9.10;99.90;;;;;;5052348;28;20053;-84
2022/03/17 10:24:06;;;;;;;10.80;2.25;;;9.20;99.90;;;;;;5050157;28;20052;-83
2022/03/17 10:26:36;;;;;;;15.32;2.58;;;9.30;99.90;;;;;;5046882;28;20101;-84
2022/03/17 10:29:06;;;;;;;12.23;2.35;;;9.40;99.90;;;;;;5027636;28;20094;-83
2022/03/17 10:31:53;;;;;;;15.88;3.05;;;9.60;99.90;;;;;;5049694;28;20392;-83
2022/03/17 10:34:19;;;;;;;9.95;2.95;;;9.70;99.90;;;;;;5037108;28;20109;-83
2022/03/17 10:36:45;;;;;;;10.35;2.03;;;10.30;99.90;;;;;;5053095;28;20052;-84
2022/03/17 10:39:17;;;;;;;15.75;2.85;;;10.20;99.90;;;;;;5029486;28;20048;-83
2022/03/17 10:44:29;;;;;;;12.43;2.10;;;10.10;99.90;;;;;;5036936;28;20053;-82
2022/03/17 10:46:56;;;;;;;9.35;2.72;;;10.00;99.90;;;;;;5033207;28;20503;-84
2022/03/17 10:49:22;;;;;;;7.85;1.85;;;11.00;99.90;;;;;;5018255;28;20473;-84
2022/03/17 10:51:52;;;;;;;9.30;2.40;;;11.20;99.90;;;;;;5018910;28;20052;-83
2022/03/17 10:54:18;;;;;;;8.05;1.75;;;11.30;99.90;;;;;;5019384;28;20053;-82
2022/03/17 10:57:04;;;;;;;10.88;1.80;;;11.70;99.90;;;;;;5035587;28;20057;-83
2022/03/17 10:59:44;;;;;;;9.13;1.63;;;12.20;99.90;;;;;;5020707;28;20057;-83
2022/03/17 11:02:14;;;;;;;5.95;1.58;;;12.50;99.90;;;;;;5035830;28;20049;-83
2022/03/17 11:04:41;;;;;;;8.98;1.85;;;12.00;99.90;;;;;;5051400;28;20543;-84
2022/03/17 11:07:10;;;;;;;10.25;2.00;;;11.70;99.90;;;;;;5035835;28;20057;-84
2022/03/17 11:09:38;;;;;;;10.13;2.00;;;11.60;99.90;;;;;;5018829;28;20132;-84
2022/03/17 11:12:06;;;;;;;11.52;2.30;;;11.30;99.90;;;;;;5019984;28;20057;-83
2022/03/17 11:14:32;;;;;;;10.15;2.03;;;11.20;99.90;;;;;;5051869;28;20060;-84
2022/03/17 11:16:58;;;;;;;8.45;1.92;;;11.30;99.90;;;;;;5035364;28;20049;-83
2022/03/17 11:19:23;;;;;;;8.63;1.80;;;11.20;99.90;;;;;;5048046;28;20056;-82
2022/03/17 11:22:05;;;;;;;9.30;2.05;;;11.40;99.90;;;;;;5014536;28;20405;-81
2022/03/17 11:24:30;;;;;;;12.82;2.30;;;11.50;99.90;;;;;;4998255;28;20061;-84
2022/03/17 11:27:15;;;;;;;10.07;2.17;;;11.30;99.90;;;;;;5015696;28;20053;-84
2022/03/17 11:29:45;;;;;;;10.80;2.10;;;11.30;99.90;;;;;;5033252;28;20439;-84
2022/03/17 11:32:50;;;;;;;14.23;2.53;;;11.20;99.90;;;;;;5032278;28;20516;-84
2022/03/17 11:35:18;;;;;;;10.57;1.90;;;11.30;99.90;;;;;;5012732;28;20061;-85
2022/03/17 11:37:44;;;;;;;11.27;1.90;;;11.00;99.90;;;;;;5032678;28;20048;-85
2022/03/17 11:40:14;;;;;;;10.85;2.35;;;11.40;99.90;;;;;;5017601;28;20478;-84
2022/03/17 11:42:56;;;;;;;10.32;2.20;;;11.60;99.90;;;;;;5039896;28;20227;-84
2022/03/17 11:45:22;;;;;;;12.63;2.22;;;11.70;99.90;;;;;;5048364;28;20063;-83
2022/03/17 11:47:55;;;;;;;15.23;2.10;;;11.70;99.90;;;;;;5034787;28;20045;-83
2022/03/17 11:50:33;;;;;;;14.00;2.75;;;12.00;99.90;;;;;;5017448;28;20132;-84
2022/03/17 11:53:15;;;;;;;10.70;2.75;;;12.20;99.90;;;;;;5032720;28;20053;-83
2022/03/17 11:55:46;;;;;;;11.05;3.40;;;12.00;99.90;;;;;;5014724;28;20068;-84
2022/03/17 11:58:24;;;;;;;13.32;2.50;;;11.80;99.90;;;;;;5031588;28;20052;-84
2022/03/17 12:01:12;;;;;;;13.93;2.72;;;12.20;99.90;;;;;;5031572;28;20050;-84
2022/03/17 12:03:41;;;;;;;11.65;2.60;;;12.10;99.90;;;;;;5032068;28;20057;-83
2022/03/17 12:06:12;;;;;;;7.55;2.20;;;11.80;99.90;;;;;;5031779;28;20094;-83
2022/03/17 12:08:51;;;;;;;7.85;2.17;;;11.70;99.90;;;;;;4998177;28;20568;-81
2022/03/17 12:11:24;;;;;;;11.82;2.55;;;11.30;99.90;;;;;;5014944;28;20053;-83
2022/03/17 12:14:16;;;;;;;8.98;2.20;;;11.30;99.90;;;;;;5015795;28;20114;-83
2022/03/17 12:16:52;;;;;;;12.30;2.25;;;11.40;99.90;;;;;;5031498;28;20052;-83
2022/03/17 12:19:33;;;;;;;8.43;2.33;;;11.60;99.90;;;;;;5019113;28;20052;-84
2022/03/17 12:22:01;;;;;;;8.48;2.10;;;11.70;99.90;;;;;;5034334;28;20053;-85
2022/03/17 12:24:53;;;;;;;8.02;2.13;;;11.80;99.90;;;;;;5034344;28;20374;-83
2022/03/17 12:27:20;;;;;;;10.65;2.35;;;11.80;99.90;;;;;;5033542;28;20064;-84
2022/03/17 12:29:53;;;;;;;9.35;2.25;;;11.80;99.90;;;;;;5034456;28;20122;-84
2022/03/17 12:32:21;;;;;;;;;;;11.70;99.90;;;;;;5048101;28;20063;-83
2022/03/17 12:34:48;;;;;;;8.55;2.30;;;11.50;99.90;;;;;;5030882;28;19925;-85
2022/03/17 12:37:14;;;;;;;7.80;2.00;;;11.50;99.90;;;;;;5030744;28;20056;-84
2022/03/17 12:39:40;;;;;;;9.40;2.75;;;11.70;99.90;;;;;;5034087;28;20057;-84
2022/03/17 12:42:19;;;;;;;11.13;2.13;;;11.50;99.90;;;;;;5033618;28;20075;-84
2022/03/17 12:44:56;;;;;;;9.93;2.15;;;11.60;99.90;;;;;;5030279;28;20060;-83
2022/03/17 12:47:23;;;;;;;8.40;2.45;;;11.90;99.90;;;;;;5014978;28;20053;-83
2022/03/17 12:49:49;;;;;;;11.43;2.45;;;11.80;99.90;;;;;;5014317;28;20057;-84
2022/03/17 12:52:18;;;;;;;7.07;2.08;;;11.70;99.90;;;;;;5030670;28;20045;-83
2022/03/17 12:55:04;;;;;;;9.60;2.15;;;11.90;99.90;;;;;;5013752;28;20473;-83
2022/03/17 12:57:31;;;;;;;11.30;2.35;;;11.70;99.90;;;;;;5014230;28;20049;-84
2022/03/17 12:59:57;;;;;;;8.98;1.95;;;11.40;99.90;;;;;;5030449;28;20054;-83
2022/03/17 13:02:23;;;;;;;9.60;2.30;;;11.60;99.90;;;;;;5030633;28;20076;-83
2022/03/17 13:04:50;;;;;;;8.95;2.20;;;11.60;99.90;;;;;;5030002;28;20057;-83